Yarm, United Kingdom
Current Conditions -  °F | °C
As of 6:20 AM on Wednesday 26 Nov 2014 (Local Time) from EGNV Reporting Station
Light Rain Light Rain  
Wind Chill: 41°   Ceiling: 3700
Heat Index: 41°   Visibility: 2.5mi
Dew Point: 41°   Wind: 1mph
Humidity: 100%   Direction: NA
Pressure: 30"   Gusts: NA
Location:  54.45°N, 1.34°W
Report Text: EGNV 260620Z VRB01KT 4000 -RA BR SCT012 BKN037 05/05 Q1016
Loading
Personal Weather Stations






























Interactive Weather Map New forecast layout! Learn more

10-Day Weather Forecast

Advertisements
Track Severe Weather on mobile